createdAt,value
2023-09-24T00:00:21.368Z,5.60
2023-09-24T00:02:51.265Z,5.67
2023-09-24T00:05:20.707Z,6.35
2023-09-24T00:07:49.215Z,6.22
2023-09-24T00:10:17.109Z,7.00
2023-09-24T00:12:45.040Z,6.47
2023-09-24T00:15:14.911Z,5.87
2023-09-24T00:17:42.929Z,7.05
2023-09-24T00:20:11.605Z,6.53
2023-09-24T00:22:40.026Z,7.42
2023-09-24T00:25:08.691Z,6.75
2023-09-24T00:27:36.829Z,7.03
2023-09-24T00:30:06.741Z,7.05
2023-09-24T00:32:36.418Z,6.87
2023-09-24T00:35:07.201Z,7.42
2023-09-24T00:37:35.046Z,6.95
2023-09-24T00:40:04.927Z,7.28
2023-09-24T00:42:32.997Z,7.45
2023-09-24T00:45:00.877Z,7.15
2023-09-24T00:47:29.501Z,6.60
2023-09-24T00:49:59.465Z,7.10
2023-09-24T00:52:27.753Z,6.47
2023-09-24T00:54:57.499Z,7.35
2023-09-24T00:57:26.946Z,6.72
2023-09-24T00:59:55.684Z,6.87
2023-09-24T01:02:23.325Z,6.45
2023-09-24T01:04:54.791Z,7.37
2023-09-24T01:07:22.655Z,6.40
2023-09-24T01:09:50.849Z,7.42
2023-09-24T01:12:23.914Z,7.35
2023-09-24T01:14:53.774Z,6.50
2023-09-24T01:17:23.521Z,6.92
2023-09-24T01:19:54.530Z,7.03
2023-09-24T01:22:22.902Z,7.03
2023-09-24T01:24:50.585Z,7.33
2023-09-24T01:27:18.678Z,7.60
2023-09-24T01:29:46.605Z,8.30
2023-09-24T01:32:15.738Z,7.50
2023-09-24T01:34:46.080Z,7.12
2023-09-24T01:37:15.149Z,6.92
2023-09-24T01:39:43.777Z,7.15
2023-09-24T01:42:13.462Z,6.58
2023-09-24T01:44:43.025Z,7.20
2023-09-24T01:47:12.374Z,8.35
2023-09-24T01:49:40.266Z,8.55
2023-09-24T01:52:08.011Z,8.65
2023-09-24T01:54:36.077Z,8.40
2023-09-24T01:57:04.061Z,8.35
2023-09-24T01:59:32.103Z,8.08
2023-09-24T02:02:00.120Z,8.48
2023-09-24T02:04:28.129Z,8.85
2023-09-24T02:06:56.008Z,8.45
2023-09-24T02:09:24.257Z,8.38
2023-09-24T02:11:53.919Z,8.73
2023-09-24T02:14:21.839Z,8.68
2023-09-24T02:16:51.413Z,9.58
2023-09-24T02:19:19.276Z,9.75
2023-09-24T02:21:47.557Z,9.43
2023-09-24T02:24:15.463Z,9.55
2023-09-24T02:26:43.472Z,7.90
2023-09-24T02:29:11.220Z,7.08
2023-09-24T02:31:39.531Z,7.62
2023-09-24T02:34:07.234Z,7.12
2023-09-24T02:36:35.400Z,7.95
2023-09-24T02:39:03.457Z,6.47
2023-09-24T02:41:32.116Z,7.70
2023-09-24T02:44:01.785Z,6.58
2023-09-24T02:46:30.679Z,7.33
2023-09-24T02:48:58.499Z,6.95
2023-09-24T02:51:26.404Z,7.05
2023-09-24T02:53:54.241Z,6.58
2023-09-24T02:56:22.250Z,6.97
2023-09-24T02:58:50.325Z,6.35
2023-09-24T03:01:20.011Z,6.95
2023-09-24T03:03:49.979Z,7.28
2023-09-24T03:06:18.210Z,7.08
2023-09-24T03:08:47.926Z,7.03
2023-09-24T03:11:15.864Z,6.53
2023-09-24T03:13:45.017Z,6.65
2023-09-24T03:16:13.117Z,6.83
2023-09-24T03:18:40.834Z,7.00
2023-09-24T03:21:14.107Z,6.37
2023-09-24T03:23:42.242Z,6.45
2023-09-24T03:26:11.871Z,6.25
2023-09-24T03:28:40.312Z,6.70
2023-09-24T03:31:16.135Z,6.58
2023-09-24T03:33:44.115Z,5.53
2023-09-24T03:36:12.342Z,6.12
2023-09-24T03:38:40.277Z,6.28
2023-09-24T03:41:09.410Z,6.22
2023-09-24T03:43:37.198Z,6.30
2023-09-24T03:46:05.426Z,6.92
2023-09-24T03:48:33.470Z,7.05
2023-09-24T03:51:01.333Z,6.10
2023-09-24T03:53:29.207Z,7.58
2023-09-24T03:55:59.430Z,6.70
2023-09-24T03:58:27.327Z,6.05
2023-09-24T04:00:55.408Z,6.83
2023-09-24T04:03:23.949Z,6.35
2023-09-24T04:05:53.515Z,6.92
2023-09-24T04:08:21.422Z,6.58
2023-09-24T04:10:50.292Z,6.75
2023-09-24T04:13:18.416Z,6.83
2023-09-24T04:15:46.715Z,6.83
2023-09-24T04:18:15.327Z,6.30
2023-09-24T04:20:44.676Z,6.17
2023-09-24T04:23:12.571Z,6.15
2023-09-24T04:25:40.555Z,6.33
2023-09-24T04:28:09.037Z,5.95
2023-09-24T04:30:37.186Z,6.30
2023-09-24T04:33:06.977Z,6.30
2023-09-24T04:35:34.625Z,7.62
2023-09-24T04:38:02.231Z,11.75
2023-09-24T04:40:31.911Z,6.80
2023-09-24T04:43:00.487Z,7.22
2023-09-24T04:45:28.371Z,7.00
2023-09-24T04:47:56.588Z,7.30
2023-09-24T04:50:26.223Z,6.40
2023-09-24T04:52:55.669Z,6.78
2023-09-24T04:55:25.330Z,6.58
2023-09-24T04:57:53.712Z,6.90
2023-09-24T05:00:22.382Z,6.55
2023-09-24T05:02:50.327Z,6.55
2023-09-24T05:05:18.570Z,6.22
2023-09-24T05:07:46.444Z,6.37
2023-09-24T05:10:14.381Z,6.55
2023-09-24T05:12:42.756Z,5.97
2023-09-24T05:15:11.292Z,5.80
2023-09-24T05:17:39.062Z,6.17
2023-09-24T05:20:09.225Z,6.33
2023-09-24T05:22:37.093Z,6.10
2023-09-24T05:25:06.260Z,6.22
2023-09-24T05:27:34.664Z,5.75
2023-09-24T05:30:03.045Z,5.80
2023-09-24T05:32:31.191Z,5.97
2023-09-24T05:34:59.661Z,6.42
2023-09-24T05:37:27.365Z,6.17
2023-09-24T05:39:54.998Z,6.00
2023-09-24T05:42:22.636Z,5.95
2023-09-24T05:44:50.757Z,5.90
2023-09-24T05:47:19.914Z,5.65
2023-09-24T05:49:47.735Z,5.67
2023-09-24T05:52:15.642Z,5.10
2023-09-24T05:54:43.928Z,4.95
2023-09-24T05:57:11.762Z,5.03
2023-09-24T05:59:39.931Z,5.37
2023-09-24T06:02:07.506Z,5.37
2023-09-24T06:04:35.582Z,5.55
2023-09-24T06:07:03.537Z,6.17
2023-09-24T06:09:31.258Z,6.55
2023-09-24T06:11:59.210Z,5.58
2023-09-24T06:14:26.940Z,5.78
2023-09-24T06:16:54.857Z,5.28
2023-09-24T06:19:23.017Z,4.53
2023-09-24T06:21:51.550Z,4.92
2023-09-24T06:24:20.802Z,5.33
2023-09-24T06:26:48.823Z,5.30
2023-09-24T06:29:16.550Z,4.55
2023-09-24T06:31:44.506Z,4.37
2023-09-24T06:34:12.228Z,5.30
2023-09-24T06:36:40.013Z,4.87
2023-09-24T06:39:12.633Z,4.87
2023-09-24T06:41:40.918Z,4.50
2023-09-24T06:44:14.617Z,4.60
2023-09-24T06:46:42.333Z,5.30
2023-09-24T06:49:11.088Z,4.80
2023-09-24T06:51:39.078Z,4.85
2023-09-24T06:54:06.950Z,4.62
2023-09-24T06:56:34.799Z,4.60
2023-09-24T06:59:02.559Z,4.12
2023-09-24T07:01:30.418Z,4.60
2023-09-24T07:03:58.689Z,5.12
2023-09-24T07:06:26.904Z,4.30
2023-09-24T07:08:54.528Z,5.53
2023-09-24T07:11:34.731Z,4.70
2023-09-24T07:14:02.705Z,4.42
2023-09-24T07:16:31.244Z,4.42
2023-09-24T07:18:59.383Z,4.78
2023-09-24T07:21:35.945Z,5.37
2023-09-24T07:24:02.678Z,4.60
2023-09-24T07:26:30.285Z,5.00
2023-09-24T07:28:58.042Z,4.83
2023-09-24T07:31:29.664Z,4.60
2023-09-24T07:33:59.214Z,4.60
2023-09-24T07:38:56.673Z,5.65
2023-09-24T07:41:24.532Z,5.10
2023-09-24T07:43:52.277Z,4.47
2023-09-24T07:46:20.770Z,4.67
2023-09-24T07:48:49.518Z,4.53
2023-09-24T07:51:17.830Z,4.75
2023-09-24T07:53:47.646Z,6.97
2023-09-24T07:56:15.950Z,5.17
2023-09-24T07:58:43.619Z,6.08
2023-09-24T08:01:14.680Z,4.97
2023-09-24T08:03:46.413Z,4.70
2023-09-24T08:06:14.775Z,5.08
2023-09-24T08:11:12.401Z,4.70
2023-09-24T08:13:39.972Z,5.00
2023-09-24T08:16:08.117Z,5.50
2023-09-24T08:18:36.128Z,5.83
2023-09-24T08:21:04.227Z,7.92
2023-09-24T08:23:33.501Z,6.60
2023-09-24T08:26:01.307Z,7.53
2023-09-24T08:28:31.168Z,4.70
2023-09-24T08:31:12.885Z,5.75
2023-09-24T08:33:42.081Z,4.83
2023-09-24T08:36:11.832Z,4.92
2023-09-24T08:38:40.656Z,5.55
2023-09-24T08:41:13.652Z,5.22
2023-09-24T08:43:43.509Z,6.03
2023-09-24T08:46:12.783Z,6.60
2023-09-24T08:48:42.872Z,5.78
2023-09-24T08:51:11.847Z,5.72
2023-09-24T08:53:41.477Z,4.47
2023-09-24T08:56:15.822Z,4.83
2023-09-24T08:58:45.461Z,4.70
2023-09-24T09:01:14.452Z,6.22
2023-09-24T09:03:42.670Z,4.97
2023-09-24T09:06:10.814Z,4.22
2023-09-24T09:08:53.750Z,5.75
2023-09-24T09:11:22.918Z,5.03
2023-09-24T09:13:51.076Z,5.08
2023-09-24T09:16:22.224Z,5.20
2023-09-24T09:19:01.850Z,5.45
2023-09-24T09:21:30.441Z,5.87
2023-09-24T09:23:58.675Z,5.25
2023-09-24T09:26:30.325Z,5.12
2023-09-24T09:28:58.386Z,4.92
2023-09-24T09:31:26.632Z,4.47
2023-09-24T09:33:54.627Z,5.35
2023-09-24T09:36:30.870Z,5.03
2023-09-24T09:38:59.618Z,5.58
2023-09-24T09:41:28.141Z,5.03
2023-09-24T09:43:58.543Z,4.65
2023-09-24T09:46:26.717Z,4.78
2023-09-24T09:48:57.285Z,5.62
2023-09-24T09:51:28.868Z,7.25
2023-09-24T09:54:03.549Z,4.40
2023-09-24T09:56:32.008Z,5.10
2023-09-24T09:59:08.152Z,5.10
2023-09-24T10:01:37.766Z,5.25
2023-09-24T10:04:10.443Z,4.75
2023-09-24T10:06:41.152Z,5.22
2023-09-24T10:09:34.737Z,8.45
2023-09-24T10:12:05.570Z,5.75
2023-09-24T10:14:39.819Z,6.50
2023-09-24T10:17:23.249Z,4.67
2023-09-24T10:19:58.224Z,7.47
2023-09-24T10:22:29.682Z,5.58
2023-09-24T10:24:57.870Z,4.55
2023-09-24T10:27:32.053Z,4.97
2023-09-24T10:30:04.461Z,4.60
2023-09-24T10:32:45.150Z,5.03
2023-09-24T10:35:13.394Z,5.75
2023-09-24T10:38:00.519Z,4.55
2023-09-24T10:40:28.875Z,5.60
2023-09-24T10:43:15.170Z,4.67
2023-09-24T10:45:45.640Z,9.83
2023-09-24T10:48:14.295Z,8.88
2023-09-24T10:50:43.675Z,11.95
2023-09-24T10:53:11.427Z,8.18
2023-09-24T10:55:41.236Z,5.45
2023-09-24T10:58:14.613Z,8.38
2023-09-24T11:00:48.148Z,5.17
2023-09-24T11:03:16.235Z,4.97
2023-09-24T11:05:48.499Z,4.80
2023-09-24T11:08:19.093Z,5.10
2023-09-24T11:10:51.743Z,4.58
2023-09-24T11:13:22.923Z,4.20
2023-09-24T11:15:50.917Z,5.05
2023-09-24T11:18:18.986Z,4.80
2023-09-24T11:20:53.929Z,5.05
2023-09-24T11:23:21.818Z,4.40
2023-09-24T11:25:51.757Z,4.87
2023-09-24T11:28:31.263Z,4.28
2023-09-24T11:30:59.635Z,9.70
2023-09-24T11:33:27.661Z,5.05
2023-09-24T11:35:57.186Z,4.30
2023-09-24T11:38:37.473Z,4.25
2023-09-24T11:41:14.168Z,4.55
2023-09-24T11:43:43.036Z,5.03
2023-09-24T11:46:32.935Z,4.58
2023-09-24T11:49:01.315Z,5.35
2023-09-24T11:51:31.114Z,5.12
2023-09-24T11:54:00.280Z,6.12
2023-09-24T11:56:28.347Z,5.03
2023-09-24T11:58:56.238Z,4.62
2023-09-24T12:01:24.150Z,5.35
2023-09-24T12:03:54.100Z,4.78
2023-09-24T12:06:22.208Z,5.10
2023-09-24T12:08:50.148Z,5.22
2023-09-24T12:11:18.389Z,4.80
2023-09-24T12:13:46.598Z,4.62
2023-09-24T12:16:16.409Z,4.50
2023-09-24T12:18:44.649Z,4.50
2023-09-24T12:21:12.866Z,4.90
2023-09-24T12:23:45.951Z,5.15
2023-09-24T12:26:13.859Z,5.25
2023-09-24T12:28:41.705Z,5.75
2023-09-24T12:31:10.097Z,4.85
2023-09-24T12:33:38.311Z,4.35
2023-09-24T12:36:06.500Z,4.53
2023-09-24T12:38:36.956Z,4.50
2023-09-24T12:41:05.014Z,4.67
2023-09-24T12:43:32.746Z,4.72
2023-09-24T12:46:08.259Z,4.28
2023-09-24T12:48:36.645Z,4.47
2023-09-24T12:51:04.541Z,4.78
2023-09-24T12:53:33.619Z,4.60
2023-09-24T12:56:02.401Z,4.22
2023-09-24T12:58:33.093Z,4.67
2023-09-24T13:01:01.522Z,4.30
2023-09-24T13:03:29.464Z,4.33
2023-09-24T13:05:57.670Z,4.20
2023-09-24T13:08:25.109Z,4.33
2023-09-24T13:10:53.098Z,4.50
2023-09-24T13:13:20.872Z,3.50
2023-09-24T13:15:50.442Z,4.35
2023-09-24T13:18:18.392Z,4.15
2023-09-24T13:20:46.359Z,4.17
2023-09-24T13:23:14.313Z,4.53
2023-09-24T13:25:43.508Z,4.53
2023-09-24T13:28:11.238Z,4.12
2023-09-24T13:30:40.843Z,3.60
2023-09-24T13:33:08.624Z,4.58
2023-09-24T13:35:42.673Z,4.08
2023-09-24T13:38:10.979Z,5.00
2023-09-24T13:40:42.265Z,3.98
2023-09-24T13:43:10.089Z,4.05
2023-09-24T13:45:43.899Z,3.62
2023-09-24T13:48:11.743Z,4.15
2023-09-24T13:50:45.467Z,4.53
2023-09-24T13:53:13.339Z,3.85
2023-09-24T13:55:43.012Z,4.15
2023-09-24T13:58:11.238Z,4.40
2023-09-24T14:00:39.395Z,3.75
2023-09-24T14:03:08.676Z,4.53
2023-09-24T14:05:37.001Z,4.12
2023-09-24T14:08:23.969Z,3.52
2023-09-24T14:11:10.441Z,3.58
2023-09-24T14:13:38.458Z,4.35
2023-09-24T14:16:15.199Z,4.47
2023-09-24T14:18:45.661Z,4.03
2023-09-24T14:21:14.452Z,4.25
2023-09-24T14:23:42.257Z,4.20
2023-09-24T14:26:10.244Z,4.60
2023-09-24T14:28:38.713Z,4.50
2023-09-24T14:31:08.072Z,4.10
2023-09-24T14:33:36.807Z,4.83
2023-09-24T14:36:05.355Z,4.45
2023-09-24T14:38:33.433Z,5.25
2023-09-24T14:41:01.574Z,5.25
2023-09-24T14:43:30.629Z,5.12
2023-09-24T14:45:59.662Z,4.55
2023-09-24T14:48:29.222Z,5.28
2023-09-24T14:50:59.187Z,4.25
2023-09-24T14:53:29.533Z,4.47
2023-09-24T14:55:58.590Z,4.85
2023-09-24T14:58:30.656Z,4.87
2023-09-24T15:01:04.121Z,4.80
2023-09-24T15:03:34.426Z,4.33
2023-09-24T15:06:05.983Z,5.00
2023-09-24T15:08:34.649Z,6.92
2023-09-24T15:11:05.335Z,7.60
2023-09-24T15:13:35.931Z,5.03
2023-09-24T15:16:05.167Z,4.15
2023-09-24T15:18:34.309Z,4.37
2023-09-24T15:21:04.795Z,4.70
2023-09-24T15:23:32.984Z,4.60
2023-09-24T15:26:01.084Z,4.40
2023-09-24T15:28:28.981Z,4.55
2023-09-24T15:30:56.510Z,5.25
2023-09-24T15:33:24.255Z,4.47
2023-09-24T15:35:52.125Z,4.72
2023-09-24T15:38:19.873Z,4.55
2023-09-24T15:40:47.825Z,5.40
2023-09-24T15:43:15.643Z,5.30
2023-09-24T15:45:47.273Z,5.92
2023-09-24T15:48:15.398Z,4.95
2023-09-24T15:50:47.086Z,4.78
2023-09-24T15:53:16.256Z,4.28
2023-09-24T15:55:44.969Z,4.70
2023-09-24T15:58:16.790Z,4.50
2023-09-24T16:00:45.998Z,5.03
2023-09-24T16:03:15.803Z,4.47
2023-09-24T16:05:46.813Z,4.58
2023-09-24T16:08:14.566Z,4.92
2023-09-24T16:10:42.383Z,4.12
2023-09-24T16:13:10.406Z,5.28
2023-09-24T16:15:38.242Z,4.67
2023-09-24T16:18:06.304Z,4.17
2023-09-24T16:20:35.878Z,4.70
2023-09-24T16:23:06.647Z,4.92
2023-09-24T16:25:35.033Z,5.05
2023-09-24T16:28:03.062Z,4.75
2023-09-24T16:30:30.849Z,5.08
2023-09-24T16:32:58.696Z,5.33
2023-09-24T16:35:28.305Z,4.90
2023-09-24T16:37:56.130Z,5.37
2023-09-24T16:40:23.557Z,4.30
2023-09-24T16:42:52.606Z,3.85
2023-09-24T16:45:20.520Z,2.83
2023-09-24T16:47:48.607Z,3.12
2023-09-24T16:50:16.666Z,3.52
2023-09-24T16:52:44.800Z,3.95
2023-09-24T16:55:14.838Z,3.80
2023-09-24T16:57:46.099Z,4.15
2023-09-24T17:00:15.686Z,3.98
2023-09-24T17:02:47.113Z,3.40
2023-09-24T17:05:15.925Z,3.15
2023-09-24T17:07:43.996Z,3.20
2023-09-24T17:10:13.421Z,3.10
2023-09-24T17:12:42.371Z,2.87
2023-09-24T17:15:11.416Z,3.30
2023-09-24T17:17:39.897Z,3.50
2023-09-24T17:20:08.851Z,3.37
2023-09-24T17:22:36.767Z,3.00
2023-09-24T17:25:05.423Z,3.47
2023-09-24T17:27:33.615Z,2.85
2023-09-24T17:30:07.643Z,3.50
2023-09-24T17:32:35.887Z,3.12
2023-09-24T17:35:04.383Z,3.00
2023-09-24T17:37:32.285Z,3.52
2023-09-24T17:40:00.410Z,3.45
2023-09-24T17:42:28.833Z,3.65
2023-09-24T17:44:56.742Z,4.00
2023-09-24T17:47:24.734Z,3.92
2023-09-24T17:49:58.641Z,4.20
2023-09-24T17:52:26.893Z,4.10
2023-09-24T17:54:54.933Z,4.28
2023-09-24T17:57:23.945Z,4.55
2023-09-24T17:59:52.364Z,5.17
2023-09-24T18:02:23.106Z,4.53
2023-09-24T18:04:52.299Z,4.55
2023-09-24T18:07:23.063Z,4.05
2023-09-24T18:09:50.769Z,4.08
2023-09-24T18:12:18.822Z,3.75
2023-09-24T18:14:49.941Z,4.15
2023-09-24T18:17:20.694Z,4.70
2023-09-24T18:19:50.342Z,3.90
2023-09-24T18:22:18.061Z,3.52
2023-09-24T18:24:49.393Z,4.00
2023-09-24T18:27:21.023Z,4.60
2023-09-24T18:29:49.226Z,3.50
2023-09-24T18:32:17.990Z,3.37
2023-09-24T18:34:55.701Z,3.37
2023-09-24T18:37:23.984Z,3.42
2023-09-24T18:39:51.953Z,3.55
2023-09-24T18:42:20.841Z,3.22
2023-09-24T18:45:00.445Z,3.70
2023-09-24T18:47:29.567Z,3.05
2023-09-24T18:50:00.412Z,2.85
2023-09-24T18:52:29.729Z,3.17
2023-09-24T18:54:58.652Z,2.72
2023-09-24T18:57:28.887Z,2.25
2023-09-24T18:59:58.536Z,2.05
2023-09-24T19:02:26.488Z,2.42
2023-09-24T19:04:54.957Z,2.15
2023-09-24T19:07:24.453Z,2.30
2023-09-24T19:09:52.333Z,2.35
2023-09-24T19:12:21.347Z,2.42
2023-09-24T19:14:49.234Z,1.95
2023-09-24T19:17:17.047Z,2.10
2023-09-24T19:19:45.045Z,2.12
2023-09-24T19:22:12.561Z,2.42
2023-09-24T19:24:40.466Z,2.45
2023-09-24T19:27:08.550Z,2.10
2023-09-24T19:29:36.443Z,2.12
2023-09-24T19:32:04.841Z,2.15
2023-09-24T19:34:32.933Z,2.70
2023-09-24T19:37:00.738Z,2.92
2023-09-24T19:39:29.484Z,2.42
2023-09-24T19:41:57.570Z,2.42
2023-09-24T19:44:26.990Z,2.47
2023-09-24T19:46:55.140Z,2.75
2023-09-24T19:49:23.115Z,2.58
2023-09-24T19:51:50.803Z,2.80
2023-09-24T19:54:18.901Z,2.42
2023-09-24T19:56:47.371Z,3.00
2023-09-24T19:59:15.316Z,3.30
2023-09-24T20:01:42.953Z,2.35
2023-09-24T20:04:14.069Z,2.50
2023-09-24T20:06:42.300Z,2.02
2023-09-24T20:09:11.212Z,2.47
2023-09-24T20:11:42.244Z,2.20
2023-09-24T20:14:11.094Z,2.42
2023-09-24T20:16:38.809Z,2.10
2023-09-24T20:19:07.959Z,2.22
2023-09-24T20:21:35.919Z,2.22
2023-09-24T20:24:06.338Z,2.33
2023-09-24T20:26:42.514Z,2.00
2023-09-24T20:29:10.249Z,2.27
2023-09-24T20:31:39.025Z,1.92
2023-09-24T20:34:08.195Z,1.80
2023-09-24T20:36:36.109Z,2.55
2023-09-24T20:39:06.030Z,2.17
2023-09-24T20:41:37.900Z,2.55
2023-09-24T20:44:07.307Z,2.40
2023-09-24T20:46:43.490Z,1.90
2023-09-24T20:49:11.549Z,2.05
2023-09-24T20:51:40.266Z,2.60
2023-09-24T20:54:08.597Z,2.12
2023-09-24T20:56:36.336Z,2.60
2023-09-24T20:59:09.505Z,2.40
2023-09-24T21:01:37.300Z,2.27
2023-09-24T21:04:05.579Z,1.98
2023-09-24T21:06:33.504Z,3.10
2023-09-24T21:09:01.214Z,2.50
2023-09-24T21:11:29.008Z,2.60
2023-09-24T21:13:57.648Z,2.85
2023-09-24T21:16:25.647Z,3.20
2023-09-24T21:18:54.189Z,3.20
2023-09-24T21:21:22.033Z,3.20
2023-09-24T21:23:49.899Z,3.12
2023-09-24T21:26:17.802Z,2.95
2023-09-24T21:28:46.084Z,3.40
2023-09-24T21:31:14.379Z,3.25
2023-09-24T21:33:42.362Z,3.77
2023-09-24T21:36:10.216Z,3.10
2023-09-24T21:38:37.948Z,4.20
2023-09-24T21:41:06.201Z,3.83
2023-09-24T21:43:34.149Z,3.65
2023-09-24T21:46:04.633Z,3.90
2023-09-24T21:48:37.138Z,3.20
2023-09-24T21:51:05.751Z,3.70
2023-09-24T21:53:33.679Z,3.87
2023-09-24T21:56:01.713Z,4.70
2023-09-24T21:58:29.669Z,3.87
2023-09-24T22:00:57.961Z,3.55
2023-09-24T22:03:25.866Z,3.80
2023-09-24T22:05:54.516Z,3.83
2023-09-24T22:08:22.274Z,4.10
2023-09-24T22:10:49.930Z,3.50
2023-09-24T22:13:17.844Z,3.95
2023-09-24T22:15:46.087Z,3.72
2023-09-24T22:18:14.143Z,3.37
2023-09-24T22:20:42.017Z,3.10
2023-09-24T22:23:09.941Z,3.65
2023-09-24T22:25:38.259Z,3.83
2023-09-24T22:28:06.573Z,4.20
2023-09-24T22:30:35.888Z,4.42
2023-09-24T22:33:04.129Z,4.03
2023-09-24T22:35:35.805Z,3.33
2023-09-24T22:38:03.813Z,3.12
2023-09-24T22:40:31.577Z,3.15
2023-09-24T22:43:05.905Z,4.33
2023-09-24T22:45:28.716Z,3.08
2023-09-24T22:47:56.503Z,3.65
2023-09-24T22:50:24.479Z,3.55
2023-09-24T22:52:51.955Z,3.62
2023-09-24T22:55:19.720Z,3.45
2023-09-24T22:57:47.566Z,3.30
2023-09-24T23:00:17.636Z,3.17
2023-09-24T23:02:46.552Z,3.05
2023-09-24T23:05:14.656Z,3.65
2023-09-24T23:07:45.847Z,3.05
2023-09-24T23:10:13.581Z,3.33
2023-09-24T23:12:41.340Z,3.60
2023-09-24T23:15:10.754Z,3.17
2023-09-24T23:17:38.764Z,3.12
2023-09-24T23:20:07.486Z,3.50
2023-09-24T23:22:35.484Z,2.90
2023-09-24T23:25:03.843Z,2.58
2023-09-24T23:27:31.595Z,2.67
2023-09-24T23:29:59.545Z,2.98
2023-09-24T23:32:29.631Z,2.33
2023-09-24T23:34:57.394Z,3.00
2023-09-24T23:37:26.221Z,2.83
2023-09-24T23:39:54.626Z,2.77
2023-09-24T23:42:24.354Z,2.22
2023-09-24T23:44:52.321Z,2.60
2023-09-24T23:47:20.141Z,2.65
2023-09-24T23:49:47.942Z,2.22
2023-09-24T23:52:15.903Z,2.70
2023-09-24T23:54:43.914Z,2.60
2023-09-24T23:57:11.622Z,2.35
2023-09-24T23:59:39.330Z,2.47
